VLO6016 SBVT-SBCX
Flight info
| Callsign | VLO6016 |
|---|---|
| Flight time | N/A |
| Altitude | FL320 |
| Route | VAPO1C MABSI UZ44 ADA UZ45 UBSOD UZ38 VUKMO VUKM1D |
| Aircraft | B703/H-VRDW/C |
Departure
| Time | 2026-05-01 14:23 |
|---|---|
| Airport | Eurico de Aguiar Salles International Airport (SBVT) |
Arrival
| Time | N/A |
|---|---|
| Airport | Hugo Cantergiani Regional Airport (SBCX) |
| Time | Latitude | Longitude | Altitude | Speed | Heading |
|---|---|---|---|---|---|
| 2026-05-01 14:06 | -20.26578 | -40.28158 | 16 ft | 0 kts | 261° |
| 2026-05-01 14:12 | -20.26578 | -40.28155 | 16 ft | 2 kts | 276° |
| 2026-05-01 14:12 | -20.26595 | -40.28116 | 17 ft | 9 kts | 298° |
| 2026-05-01 14:12 | -20.26631 | -40.28094 | 17 ft | 2 kts | 351° |
| 2026-05-01 14:13 | -20.26632 | -40.28093 | 17 ft | 0 kts | 351° |
| 2026-05-01 14:15 | -20.26631 | -40.28093 | 17 ft | 0 kts | 351° |
| 2026-05-01 14:15 | -20.26617 | -40.28096 | 17 ft | 4 kts | 351° |
| 2026-05-01 14:16 | -20.26580 | -40.28092 | 17 ft | 7 kts | 11° |
| 2026-05-01 14:16 | -20.26522 | -40.28081 | 16 ft | 10 kts | 11° |
| 2026-05-01 14:16 | -20.26444 | -40.28065 | 16 ft | 13 kts | 11° |
| 2026-05-01 14:16 | -20.26344 | -40.28063 | 15 ft | 16 kts | 352° |
| 2026-05-01 14:17 | -20.26223 | -40.28080 | 14 ft | 19 kts | 352° |
| 2026-05-01 14:17 | -20.26081 | -40.28101 | 13 ft | 22 kts | 352° |
| 2026-05-01 14:17 | -20.25916 | -40.28125 | 12 ft | 25 kts | 352° |
| 2026-05-01 14:17 | -20.25733 | -40.28152 | 11 ft | 28 kts | 352° |
| 2026-05-01 14:18 | -20.25533 | -40.28180 | 9 ft | 30 kts | 353° |
| 2026-05-01 14:18 | -20.25365 | -40.28191 | 9 ft | 11 kts | 16° |
| 2026-05-01 14:18 | -20.25314 | -40.28159 | 9 ft | 6 kts | 33° |
| 2026-05-01 14:18 | -20.25302 | -40.28151 | 8 ft | 0 kts | 33° |
| 2026-05-01 14:20 | -20.25300 | -40.28150 | 8 ft | 2 kts | 33° |
| 2026-05-01 14:21 | -20.25258 | -40.28121 | 8 ft | 12 kts | 32° |
| 2026-05-01 14:21 | -20.25182 | -40.28072 | 8 ft | 14 kts | 25° |
| 2026-05-01 14:21 | -20.25080 | -40.28071 | 8 ft | 16 kts | 352° |
| 2026-05-01 14:22 | -20.24838 | -40.28092 | 8 ft | 15 kts | 26° |
| 2026-05-01 14:22 | -20.24784 | -40.28104 | 8 ft | 6 kts | 249° |
| 2026-05-01 14:22 | -20.24821 | -40.28111 | 8 ft | 8 kts | 171° |
| 2026-05-01 14:22 | -20.25077 | -40.28071 | 8 ft | 77 kts | 172° |
| 2026-05-01 14:23 | -20.25881 | -40.27952 | 13 ft | 155 kts | 172° |
| 2026-05-01 14:23 | -20.27096 | -40.27775 | 243 ft | 181 kts | 172° |
| 2026-05-01 14:23 | -20.28353 | -40.27589 | 713 ft | 183 kts | 171° |
| 2026-05-01 14:23 | -20.29618 | -40.27400 | 1213 ft | 184 kts | 171° |
| 2026-05-01 14:24 | -20.30890 | -40.27211 | 1713 ft | 185 kts | 172° |
| 2026-05-01 14:24 | -20.32143 | -40.27026 | 2201 ft | 187 kts | 172° |
| 2026-05-01 14:24 | -20.33474 | -40.26829 | 2717 ft | 188 kts | 172° |
| 2026-05-01 14:24 | -20.34773 | -40.26637 | 3217 ft | 189 kts | 172° |
| 2026-05-01 14:25 | -20.36078 | -40.26687 | 3713 ft | 192 kts | 200° |
| 2026-05-01 14:25 | -20.37296 | -40.27297 | 4218 ft | 194 kts | 206° |
| 2026-05-01 14:25 | -20.38491 | -40.27959 | 4717 ft | 195 kts | 206° |
| 2026-05-01 14:25 | -20.39697 | -40.28629 | 5217 ft | 196 kts | 207° |
| 2026-05-01 14:26 | -20.40939 | -40.29319 | 5732 ft | 210 kts | 207° |
| 2026-05-01 14:26 | -20.43750 | -40.30879 | 6782 ft | 245 kts | 207° |
| 2026-05-01 14:26 | -20.45312 | -40.31746 | 7301 ft | 262 kts | 207° |
| 2026-05-01 14:27 | -20.46970 | -40.32667 | 7814 ft | 274 kts | 207° |
| 2026-05-01 14:27 | -20.48672 | -40.33613 | 8317 ft | 278 kts | 207° |
| 2026-05-01 14:27 | -20.50390 | -40.34569 | 8817 ft | 280 kts | 207° |
| 2026-05-01 14:28 | -20.53875 | -40.36508 | 9821 ft | 284 kts | 207° |
| 2026-05-01 14:28 | -20.55629 | -40.37484 | 10321 ft | 286 kts | 207° |
| 2026-05-01 14:28 | -20.57402 | -40.38471 | 10824 ft | 292 kts | 207° |
| 2026-05-01 14:28 | -20.59245 | -40.39496 | 11335 ft | 306 kts | 207° |
| 2026-05-01 14:29 | -20.61172 | -40.40569 | 11846 ft | 320 kts | 207° |
| 2026-05-01 14:29 | -20.63192 | -40.41693 | 12357 ft | 334 kts | 207° |
| 2026-05-01 14:30 | -20.69640 | -40.45287 | 14013 ft | 355 kts | 207° |
| 2026-05-01 14:30 | -20.71838 | -40.46513 | 14639 ft | 358 kts | 207° |
| 2026-05-01 14:30 | -20.74056 | -40.47750 | 15265 ft | 361 kts | 207° |
| 2026-05-01 14:31 | -20.78546 | -40.50256 | 16515 ft | 368 kts | 207° |
| 2026-05-01 14:31 | -20.80816 | -40.51524 | 17175 ft | 370 kts | 207° |
| 2026-05-01 14:31 | -20.83111 | -40.52806 | 17924 ft | 373 kts | 207° |
| 2026-05-01 14:31 | -20.85410 | -40.54091 | 18671 ft | 375 kts | 207° |
| 2026-05-01 14:32 | -20.87748 | -40.55398 | 19427 ft | 381 kts | 207° |
| 2026-05-01 14:32 | -20.90071 | -40.56820 | 20282 ft | 390 kts | 214° |
| 2026-05-01 14:32 | -20.92288 | -40.58531 | 21161 ft | 397 kts | 216° |
| 2026-05-01 14:32 | -20.94507 | -40.60325 | 22039 ft | 403 kts | 217° |
| 2026-05-01 14:33 | -20.96744 | -40.62150 | 22914 ft | 407 kts | 217° |
| 2026-05-01 14:33 | -20.98998 | -40.63991 | 23788 ft | 410 kts | 217° |
| 2026-05-01 14:33 | -21.01262 | -40.65842 | 24584 ft | 413 kts | 217° |
| 2026-05-01 14:33 | -21.03571 | -40.67731 | 25341 ft | 416 kts | 217° |
| 2026-05-01 14:34 | -21.05871 | -40.69612 | 26089 ft | 418 kts | 217° |
| 2026-05-01 14:34 | -21.08173 | -40.71495 | 26790 ft | 419 kts | 217° |
| 2026-05-01 14:34 | -21.10477 | -40.73381 | 27368 ft | 423 kts | 217° |
| 2026-05-01 14:34 | -21.12834 | -40.75312 | 27874 ft | 427 kts | 217° |
| 2026-05-01 14:35 | -21.15198 | -40.77252 | 28302 ft | 432 kts | 217° |
| 2026-05-01 14:35 | -21.17599 | -40.79225 | 28573 ft | 439 kts | 217° |
| 2026-05-01 14:35 | -21.20053 | -40.81242 | 28828 ft | 446 kts | 217° |
| 2026-05-01 14:35 | -21.22524 | -40.83273 | 29081 ft | 452 kts | 217° |
| 2026-05-01 14:36 | -21.25030 | -40.85335 | 29333 ft | 456 kts | 217° |
| 2026-05-01 14:36 | -21.27558 | -40.87415 | 29585 ft | 460 kts | 217° |
| 2026-05-01 14:36 | -21.30089 | -40.89499 | 29835 ft | 463 kts | 217° |
| 2026-05-01 14:36 | -21.32646 | -40.91606 | 30085 ft | 465 kts | 217° |
| 2026-05-01 14:37 | -21.35195 | -40.93706 | 30333 ft | 467 kts | 217° |
| 2026-05-01 14:37 | -21.37802 | -40.95854 | 30586 ft | 468 kts | 217° |
| 2026-05-01 14:37 | -21.40380 | -40.97979 | 30835 ft | 469 kts | 217° |
| 2026-05-01 14:37 | -21.42963 | -41.00109 | 31084 ft | 470 kts | 217° |
| 2026-05-01 14:38 | -21.45548 | -41.02241 | 31333 ft | 470 kts | 217° |
| 2026-05-01 14:38 | -21.48140 | -41.04380 | 31583 ft | 471 kts | 217° |
| 2026-05-01 14:38 | -21.50728 | -41.06516 | 31831 ft | 471 kts | 217° |
| 2026-05-01 14:38 | -21.53319 | -41.08656 | 32080 ft | 471 kts | 217° |
| 2026-05-01 14:39 | -21.55933 | -41.10816 | 32331 ft | 471 kts | 217° |
| 2026-05-01 14:39 | -21.58520 | -41.12954 | 32579 ft | 472 kts | 217° |
| 2026-05-01 14:39 | -21.61115 | -41.15101 | 32828 ft | 472 kts | 217° |
| 2026-05-01 14:39 | -21.63705 | -41.17244 | 33076 ft | 471 kts | 217° |
| 2026-05-01 14:40 | -21.66297 | -41.19389 | 33310 ft | 472 kts | 217° |
| 2026-05-01 14:40 | -21.71530 | -41.23727 | 33396 ft | 480 kts | 217° |
| 2026-05-01 14:41 | -21.76852 | -41.28190 | 33396 ft | 488 kts | 218° |
| 2026-05-01 14:41 | -21.82224 | -41.32709 | 33395 ft | 494 kts | 218° |
| 2026-05-01 14:42 | -21.87654 | -41.37284 | 33395 ft | 499 kts | 218° |
| 2026-05-01 14:42 | -21.93137 | -41.41907 | 33395 ft | 502 kts | 218° |
| 2026-05-01 14:43 | -21.98633 | -41.46547 | 33394 ft | 504 kts | 218° |
| 2026-05-01 14:43 | -22.04130 | -41.51192 | 33394 ft | 506 kts | 218° |
| 2026-05-01 14:44 | -22.09674 | -41.55882 | 33394 ft | 507 kts | 218° |
| 2026-05-01 14:44 | -22.18000 | -41.62936 | 33394 ft | 508 kts | 218° |
| 2026-05-01 14:45 | -22.26324 | -41.69999 | 33394 ft | 509 kts | 218° |
| 2026-05-01 14:46 | -22.31895 | -41.74731 | 33394 ft | 509 kts | 218° |
| 2026-05-01 14:46 | -22.40697 | -41.81093 | 33394 ft | 509 kts | 212° |
| 2026-05-01 14:47 | -22.46660 | -41.85198 | 33394 ft | 509 kts | 212° |
| 2026-05-01 14:48 | -22.55629 | -41.91374 | 33394 ft | 509 kts | 212° |
| 2026-05-01 14:48 | -22.64574 | -41.97546 | 33394 ft | 510 kts | 212° |
| 2026-05-01 14:49 | -22.76082 | -42.06462 | 33393 ft | 510 kts | 225° |
| 2026-05-01 14:50 | -22.79088 | -42.10411 | 33393 ft | 511 kts | 236° |
| 2026-05-01 14:50 | -22.83519 | -42.19422 | 33394 ft | 512 kts | 244° |
| 2026-05-01 14:51 | -22.88146 | -42.29823 | 33394 ft | 512 kts | 244° |
| 2026-05-01 14:52 | -22.92750 | -42.40214 | 33394 ft | 512 kts | 244° |
| 2026-05-01 14:53 | -22.97359 | -42.50639 | 33394 ft | 512 kts | 244° |
| 2026-05-01 14:53 | -23.00419 | -42.57572 | 33394 ft | 512 kts | 244° |
| 2026-05-01 14:54 | -23.03478 | -42.64512 | 33394 ft | 512 kts | 244° |
| 2026-05-01 14:54 | -23.06536 | -42.71458 | 33394 ft | 512 kts | 244° |
| 2026-05-01 14:55 | -23.09606 | -42.78444 | 33394 ft | 512 kts | 244° |
| 2026-05-01 14:55 | -23.12654 | -42.85386 | 33394 ft | 512 kts | 244° |
| 2026-05-01 14:56 | -23.15701 | -42.92337 | 33394 ft | 512 kts | 244° |
| 2026-05-01 14:56 | -23.18758 | -42.99319 | 33394 ft | 512 kts | 244° |
| 2026-05-01 14:57 | -23.21803 | -43.06283 | 33394 ft | 512 kts | 244° |
| 2026-05-01 14:57 | -23.26364 | -43.16732 | 33394 ft | 512 kts | 244° |
| 2026-05-01 14:58 | -23.29411 | -43.23725 | 33394 ft | 512 kts | 245° |
| 2026-05-01 14:58 | -23.31669 | -43.31025 | 33395 ft | 513 kts | 254° |
| 2026-05-01 14:59 | -23.33467 | -43.38496 | 33394 ft | 513 kts | 255° |
| 2026-05-01 14:59 | -23.35235 | -43.45980 | 33394 ft | 513 kts | 255° |
| 2026-05-01 15:00 | -23.37882 | -43.57221 | 33394 ft | 513 kts | 255° |
| 2026-05-01 15:01 | -23.39634 | -43.64682 | 33394 ft | 513 kts | 255° |
| 2026-05-01 15:01 | -23.41386 | -43.72159 | 33394 ft | 513 kts | 255° |
| 2026-05-01 15:02 | -23.43141 | -43.79667 | 33394 ft | 513 kts | 255° |
| 2026-05-01 15:02 | -23.44897 | -43.87190 | 33394 ft | 513 kts | 255° |
| 2026-05-01 15:03 | -23.46641 | -43.94680 | 33394 ft | 513 kts | 255° |
| 2026-05-01 15:03 | -23.48391 | -44.02207 | 33394 ft | 513 kts | 255° |
| 2026-05-01 15:04 | -23.50131 | -44.09705 | 33394 ft | 513 kts | 255° |
| 2026-05-01 15:04 | -23.51858 | -44.17182 | 33394 ft | 513 kts | 256° |
| 2026-05-01 15:05 | -23.53585 | -44.24709 | 33394 ft | 513 kts | 256° |
| 2026-05-01 15:05 | -23.55310 | -44.32249 | 33394 ft | 513 kts | 256° |
| 2026-05-01 15:06 | -23.57027 | -44.39768 | 33394 ft | 513 kts | 256° |
| 2026-05-01 15:06 | -23.58738 | -44.47279 | 33394 ft | 513 kts | 256° |
| 2026-05-01 15:07 | -23.60451 | -44.54818 | 33394 ft | 513 kts | 256° |
| 2026-05-01 15:07 | -23.62157 | -44.62339 | 33394 ft | 513 kts | 256° |
| 2026-05-01 15:08 | -23.63857 | -44.69853 | 33394 ft | 513 kts | 256° |
| 2026-05-01 15:08 | -23.65556 | -44.77379 | 33394 ft | 513 kts | 256° |
| 2026-05-01 15:09 | -23.67256 | -44.84927 | 33394 ft | 513 kts | 256° |
| 2026-05-01 15:09 | -23.68950 | -44.92462 | 33394 ft | 513 kts | 256° |
| 2026-05-01 15:10 | -23.70639 | -44.99991 | 33394 ft | 513 kts | 256° |
| 2026-05-01 15:10 | -23.73172 | -45.11311 | 33394 ft | 514 kts | 256° |
| 2026-05-01 15:11 | -23.75694 | -45.22615 | 33394 ft | 514 kts | 256° |
| 2026-05-01 15:12 | -23.77360 | -45.30158 | 33394 ft | 514 kts | 256° |
| 2026-05-01 15:12 | -23.79858 | -45.41502 | 33394 ft | 514 kts | 256° |
| 2026-05-01 15:14 | -23.84003 | -45.60398 | 33394 ft | 514 kts | 256° |
| 2026-05-01 15:14 | -23.86482 | -45.71729 | 33394 ft | 514 kts | 256° |
| 2026-05-01 15:15 | -23.89779 | -45.86867 | 33394 ft | 514 kts | 256° |
| 2026-05-01 15:16 | -23.93058 | -46.01984 | 33394 ft | 514 kts | 256° |
| 2026-05-01 15:18 | -23.97147 | -46.20921 | 33394 ft | 514 kts | 256° |
| 2026-05-01 15:19 | -24.01373 | -46.35751 | 33394 ft | 514 kts | 250° |
| 2026-05-01 15:19 | -24.04864 | -46.46808 | 33394 ft | 514 kts | 250° |
| 2026-05-01 15:20 | -24.08351 | -46.57839 | 33394 ft | 514 kts | 250° |
| 2026-05-01 15:21 | -24.10685 | -46.65210 | 33394 ft | 514 kts | 250° |
| 2026-05-01 15:21 | -24.12992 | -46.72503 | 33394 ft | 514 kts | 250° |
| 2026-05-01 15:22 | -24.16492 | -46.83594 | 33394 ft | 514 kts | 250° |
| 2026-05-01 15:22 | -24.18819 | -46.90988 | 33394 ft | 514 kts | 251° |
| 2026-05-01 15:23 | -24.21133 | -46.98354 | 33394 ft | 514 kts | 251° |
| 2026-05-01 15:23 | -24.23956 | -47.05473 | 33394 ft | 513 kts | 239° |
| 2026-05-01 15:24 | -24.28353 | -47.11551 | 33395 ft | 512 kts | 223° |
| 2026-05-01 15:24 | -24.33985 | -47.16319 | 33395 ft | 511 kts | 214° |
| 2026-05-01 15:25 | -24.39875 | -47.20657 | 33394 ft | 511 kts | 213° |
| 2026-05-01 15:25 | -24.45777 | -47.24973 | 33394 ft | 511 kts | 213° |
| 2026-05-01 15:26 | -24.51709 | -47.29315 | 33394 ft | 512 kts | 213° |
| 2026-05-01 15:26 | -24.57614 | -47.33642 | 33394 ft | 512 kts | 213° |
| 2026-05-01 15:27 | -24.63519 | -47.37974 | 33394 ft | 512 kts | 213° |
| 2026-05-01 15:28 | -24.72400 | -47.44499 | 33394 ft | 512 kts | 213° |
| 2026-05-01 15:28 | -24.78303 | -47.48842 | 33394 ft | 512 kts | 213° |
| 2026-05-01 15:29 | -24.87152 | -47.55363 | 33394 ft | 512 kts | 213° |
| 2026-05-01 15:30 | -24.98977 | -47.64095 | 33394 ft | 512 kts | 213° |
| 2026-05-01 15:31 | -25.16694 | -47.77218 | 33394 ft | 512 kts | 213° |
| 2026-05-01 15:32 | -25.28482 | -47.85972 | 33394 ft | 512 kts | 213° |
| 2026-05-01 15:34 | -25.46422 | -47.98759 | 33394 ft | 512 kts | 212° |